sensor_id;sensor_type;location;lat;lon;timestamp;P1;durP1;ratioP1;P2;durP2;ratioP2
10440;SDS011;5268;49.346;9.522;2022-07-18T03:20:30;3.55;;;1.60;;
10440;SDS011;5268;49.346;9.522;2022-07-18T03:25:32;2.55;;;1.40;;
10440;SDS011;5268;49.346;9.522;2022-07-18T03:30:34;4.70;;;1.50;;
10440;SDS011;5268;49.346;9.522;2022-07-18T03:35:38;1.67;;;1.45;;
10440;SDS011;5268;49.346;9.522;2022-07-18T03:40:40;2.25;;;1.55;;
10440;SDS011;5268;49.346;9.522;2022-07-18T03:45:42;2.72;;;1.70;;
10440;SDS011;5268;49.346;9.522;2022-07-18T03:50:45;1.63;;;1.40;;
10440;SDS011;5268;49.346;9.522;2022-07-18T03:55:47;2.97;;;1.50;;
10440;SDS011;5268;49.346;9.522;2022-07-18T04:00:50;4.22;;;1.60;;
10440;SDS011;5268;49.346;9.522;2022-07-18T04:05:54;5.07;;;2.92;;
10440;SDS011;5268;49.346;9.522;2022-07-18T04:10:56;3.05;;;1.90;;
10440;SDS011;5268;49.346;9.522;2022-07-18T04:15:58;3.90;;;2.60;;
10440;SDS011;5268;49.346;9.522;2022-07-18T04:21:01;6.53;;;3.50;;
10440;SDS011;5268;49.346;9.522;2022-07-18T04:26:03;4.10;;;2.67;;
10440;SDS011;5268;49.346;9.522;2022-07-18T04:31:05;4.75;;;2.30;;
10440;SDS011;5268;49.346;9.522;2022-07-18T04:36:09;5.35;;;2.65;;
10440;SDS011;5268;49.346;9.522;2022-07-18T04:41:13;3.92;;;2.17;;
10440;SDS011;5268;49.346;9.522;2022-07-18T04:46:17;9.00;;;2.65;;
10440;SDS011;5268;49.346;9.522;2022-07-18T04:51:20;7.70;;;3.50;;
10440;SDS011;5268;49.346;9.522;2022-07-18T04:56:22;5.25;;;2.95;;
10440;SDS011;5268;49.346;9.522;2022-07-18T05:01:24;6.70;;;2.38;;
10440;SDS011;5268;49.346;9.522;2022-07-18T05:06:28;3.60;;;2.10;;
10440;SDS011;5268;49.346;9.522;2022-07-18T05:11:30;5.10;;;2.40;;
10440;SDS011;5268;49.346;9.522;2022-07-18T05:16:32;4.05;;;2.15;;
10440;SDS011;5268;49.346;9.522;2022-07-18T05:21:35;5.00;;;2.20;;
10440;SDS011;5268;49.346;9.522;2022-07-18T05:26:37;4.35;;;1.92;;
10440;SDS011;5268;49.346;9.522;2022-07-18T05:31:39;4.05;;;1.60;;
10440;SDS011;5268;49.346;9.522;2022-07-18T05:36:43;4.15;;;1.77;;
10440;SDS011;5268;49.346;9.522;2022-07-18T05:41:44;4.85;;;1.92;;
10440;SDS011;5268;49.346;9.522;2022-07-18T05:46:47;5.97;;;1.70;;
10440;SDS011;5268;49.346;9.522;2022-07-18T05:51:50;4.55;;;1.40;;
10440;SDS011;5268;49.346;9.522;2022-07-18T05:56:52;2.95;;;1.48;;
10440;SDS011;5268;49.346;9.522;2022-07-18T06:01:54;2.85;;;1.52;;
10440;SDS011;5268;49.346;9.522;2022-07-18T06:06:58;5.20;;;1.60;;
10440;SDS011;5268;49.346;9.522;2022-07-18T06:12:00;2.85;;;1.75;;
10440;SDS011;5268;49.346;9.522;2022-07-18T06:17:02;2.78;;;1.20;;
10440;SDS011;5268;49.346;9.522;2022-07-18T06:22:06;3.25;;;1.67;;
10440;SDS011;5268;49.346;9.522;2022-07-18T06:27:10;5.07;;;1.50;;
10440;SDS011;5268;49.346;9.522;2022-07-18T06:32:12;4.97;;;1.50;;
10440;SDS011;5268;49.346;9.522;2022-07-18T06:37:16;4.45;;;1.50;;
10440;SDS011;5268;49.346;9.522;2022-07-18T06:42:18;4.75;;;1.52;;
10440;SDS011;5268;49.346;9.522;2022-07-18T06:47:19;3.13;;;1.77;;
10440;SDS011;5268;49.346;9.522;2022-07-18T06:52:23;3.70;;;1.70;;
10440;SDS011;5268;49.346;9.522;2022-07-18T06:57:25;3.25;;;1.70;;
10440;SDS011;5268;49.346;9.522;2022-07-18T07:02:27;2.50;;;1.48;;
10440;SDS011;5268;49.346;9.522;2022-07-18T07:07:30;3.28;;;1.60;;
10440;SDS011;5268;49.346;9.522;2022-07-18T07:12:37;5.75;;;1.60;;
10440;SDS011;5268;49.346;9.522;2022-07-18T07:17:40;2.20;;;1.50;;
10440;SDS011;5268;49.346;9.522;2022-07-18T07:22:47;2.67;;;1.70;;
10440;SDS011;5268;49.346;9.522;2022-07-18T07:27:51;4.57;;;1.83;;
10440;SDS011;5268;49.346;9.522;2022-07-18T07:32:53;2.05;;;1.58;;
10440;SDS011;5268;49.346;9.522;2022-07-18T07:37:58;3.08;;;1.52;;
10440;SDS011;5268;49.346;9.522;2022-07-18T07:43:04;3.55;;;1.50;;
10440;SDS011;5268;49.346;9.522;2022-07-18T07:48:08;1.98;;;1.38;;
10440;SDS011;5268;49.346;9.522;2022-07-18T07:53:11;3.90;;;1.67;;
10440;SDS011;5268;49.346;9.522;2022-07-18T07:58:13;2.40;;;1.48;;
10440;SDS011;5268;49.346;9.522;2022-07-18T08:03:15;4.35;;;1.70;;
10440;SDS011;5268;49.346;9.522;2022-07-18T08:08:19;3.20;;;1.60;;
10440;SDS011;5268;49.346;9.522;2022-07-18T08:13:21;1.95;;;1.50;;
10440;SDS011;5268;49.346;9.522;2022-07-18T08:18:24;2.65;;;1.48;;
10440;SDS011;5268;49.346;9.522;2022-07-18T08:23:27;2.30;;;1.45;;
10440;SDS011;5268;49.346;9.522;2022-07-18T08:28:29;3.20;;;1.60;;
10440;SDS011;5268;49.346;9.522;2022-07-18T08:33:31;2.70;;;1.48;;
10440;SDS011;5268;49.346;9.522;2022-07-18T08:38:35;1.80;;;1.17;;
10440;SDS011;5268;49.346;9.522;2022-07-18T08:43:37;2.03;;;1.13;;
10440;SDS011;5268;49.346;9.522;2022-07-18T08:48:39;2.67;;;1.20;;
10440;SDS011;5268;49.346;9.522;2022-07-18T08:53:44;1.45;;;1.08;;
10440;SDS011;5268;49.346;9.522;2022-07-18T08:58:48;2.95;;;1.10;;
10440;SDS011;5268;49.346;9.522;2022-07-18T09:03:50;2.97;;;1.20;;
10440;SDS011;5268;49.346;9.522;2022-07-18T09:09:08;1.90;;;1.10;;
10440;SDS011;5268;49.346;9.522;2022-07-18T09:14:26;2.28;;;1.30;;
10440;SDS011;5268;49.346;9.522;2022-07-18T09:19:29;2.25;;;1.23;;
10440;SDS011;5268;49.346;9.522;2022-07-18T09:24:36;3.08;;;1.30;;
10440;SDS011;5268;49.346;9.522;2022-07-18T09:30:09;3.22;;;1.40;;
10440;SDS011;5268;49.346;9.522;2022-07-18T09:35:17;2.67;;;1.40;;
10440;SDS011;5268;49.346;9.522;2022-07-18T09:40:23;2.13;;;1.33;;
10440;SDS011;5268;49.346;9.522;2022-07-18T09:45:27;4.38;;;1.60;;
10440;SDS011;5268;49.346;9.522;2022-07-18T09:50:34;2.45;;;1.40;;
10440;SDS011;5268;49.346;9.522;2022-07-18T09:55:45;2.13;;;1.25;;
10440;SDS011;5268;49.346;9.522;2022-07-18T10:00:49;2.63;;;1.30;;
10440;SDS011;5268;49.346;9.522;2022-07-18T10:05:53;1.60;;;1.23;;
10440;SDS011;5268;49.346;9.522;2022-07-18T10:10:59;1.55;;;1.20;;
10440;SDS011;5268;49.346;9.522;2022-07-18T10:16:02;1.67;;;1.10;;
10440;SDS011;5268;49.346;9.522;2022-07-18T10:21:05;1.83;;;1.48;;
10440;SDS011;5268;49.346;9.522;2022-07-18T10:26:14;2.45;;;1.33;;
10440;SDS011;5268;49.346;9.522;2022-07-18T10:31:19;2.65;;;1.20;;
10440;SDS011;5268;49.346;9.522;2022-07-18T10:36:21;2.17;;;1.27;;
10440;SDS011;5268;49.346;9.522;2022-07-18T10:41:25;3.25;;;1.30;;
10440;SDS011;5268;49.346;9.522;2022-07-18T10:52:02;1.35;;;1.20;;
10440;SDS011;5268;49.346;9.522;2022-07-18T10:57:09;2.53;;;1.20;;
10440;SDS011;5268;49.346;9.522;2022-07-18T11:02:12;2.22;;;1.25;;
10440;SDS011;5268;49.346;9.522;2022-07-18T11:07:14;3.40;;;1.30;;
10440;SDS011;5268;49.346;9.522;2022-07-18T11:12:18;2.20;;;1.17;;
10440;SDS011;5268;49.346;9.522;2022-07-18T11:22:59;2.55;;;1.10;;
10440;SDS011;5268;49.346;9.522;2022-07-18T11:28:03;2.33;;;1.23;;
10440;SDS011;5268;49.346;9.522;2022-07-18T11:33:22;3.22;;;1.30;;
10440;SDS011;5268;49.346;9.522;2022-07-18T11:38:25;2.75;;;1.20;;
10440;SDS011;5268;49.346;9.522;2022-07-18T11:43:28;1.67;;;1.17;;
10440;SDS011;5268;49.346;9.522;2022-07-18T11:48:31;1.35;;;1.10;;
10440;SDS011;5268;49.346;9.522;2022-07-18T11:53:33;4.32;;;1.38;;
10440;SDS011;5268;49.346;9.522;2022-07-18T11:58:38;2.78;;;1.30;;
10440;SDS011;5268;49.346;9.522;2022-07-18T12:03:43;2.15;;;1.20;;
10440;SDS011;5268;49.346;9.522;2022-07-18T12:08:46;2.33;;;1.30;;
10440;SDS011;5268;49.346;9.522;2022-07-18T12:13:52;2.50;;;1.10;;
10440;SDS011;5268;49.346;9.522;2022-07-18T12:18:57;1.88;;;1.20;;
10440;SDS011;5268;49.346;9.522;2022-07-18T12:24:16;1.73;;;1.20;;
10440;SDS011;5268;49.346;9.522;2022-07-18T12:29:25;2.75;;;1.35;;
10440;SDS011;5268;49.346;9.522;2022-07-18T12:34:27;3.83;;;1.27;;
10440;SDS011;5268;49.346;9.522;2022-07-18T12:39:29;1.33;;;1.20;;
10440;SDS011;5268;49.346;9.522;2022-07-18T12:44:34;3.15;;;1.40;;
10440;SDS011;5268;49.346;9.522;2022-07-18T12:49:36;1.85;;;1.20;;
10440;SDS011;5268;49.346;9.522;2022-07-18T12:54:39;4.68;;;1.40;;
10440;SDS011;5268;49.346;9.522;2022-07-18T12:59:42;3.58;;;1.30;;
10440;SDS011;5268;49.346;9.522;2022-07-18T13:04:45;3.38;;;1.00;;
10440;SDS011;5268;49.346;9.522;2022-07-18T13:09:47;2.25;;;1.10;;
10440;SDS011;5268;49.346;9.522;2022-07-18T13:14:53;1.35;;;1.08;;
10440;SDS011;5268;49.346;9.522;2022-07-18T13:19:55;4.60;;;1.17;;
10440;SDS011;5268;49.346;9.522;2022-07-18T13:24:57;1.77;;;1.00;;
10440;SDS011;5268;49.346;9.522;2022-07-18T13:30:00;1.65;;;1.10;;
10440;SDS011;5268;49.346;9.522;2022-07-18T13:35:04;1.95;;;1.30;;
10440;SDS011;5268;49.346;9.522;2022-07-18T13:40:07;2.35;;;1.00;;
10440;SDS011;5268;49.346;9.522;2022-07-18T13:45:12;1.60;;;1.10;;
10440;SDS011;5268;49.346;9.522;2022-07-18T13:50:15;1.67;;;1.27;;
10440;SDS011;5268;49.346;9.522;2022-07-18T13:55:17;4.15;;;1.48;;
10440;SDS011;5268;49.346;9.522;2022-07-18T14:00:20;1.77;;;1.30;;
10440;SDS011;5268;49.346;9.522;2022-07-18T14:05:22;2.88;;;1.42;;
10440;SDS011;5268;49.346;9.522;2022-07-18T14:10:25;2.75;;;1.23;;
10440;SDS011;5268;49.346;9.522;2022-07-18T14:15:29;2.58;;;1.23;;
10440;SDS011;5268;49.346;9.522;2022-07-18T14:20:31;2.33;;;1.35;;
10440;SDS011;5268;49.346;9.522;2022-07-18T14:25:33;2.85;;;1.35;;
10440;SDS011;5268;49.346;9.522;2022-07-18T14:30:36;1.67;;;1.40;;
10440;SDS011;5268;49.346;9.522;2022-07-18T14:35:38;2.35;;;1.40;;
10440;SDS011;5268;49.346;9.522;2022-07-18T14:40:40;2.63;;;1.40;;
10440;SDS011;5268;49.346;9.522;2022-07-18T14:45:44;2.30;;;1.35;;
10440;SDS011;5268;49.346;9.522;2022-07-18T14:50:46;20.30;;;2.60;;
10440;SDS011;5268;49.346;9.522;2022-07-18T14:55:51;2.28;;;1.25;;
10440;SDS011;5268;49.346;9.522;2022-07-18T15:00:54;2.72;;;1.27;;
10440;SDS011;5268;49.346;9.522;2022-07-18T15:05:56;1.95;;;1.30;;
10440;SDS011;5268;49.346;9.522;2022-07-18T15:10:58;2.38;;;1.55;;
10440;SDS011;5268;49.346;9.522;2022-07-18T15:16:02;2.38;;;1.40;;
10440;SDS011;5268;49.346;9.522;2022-07-18T15:21:04;2.75;;;1.27;;
10440;SDS011;5268;49.346;9.522;2022-07-18T15:26:06;3.13;;;1.30;;
10440;SDS011;5268;49.346;9.522;2022-07-18T15:31:09;1.80;;;1.30;;
10440;SDS011;5268;49.346;9.522;2022-07-18T15:36:12;2.50;;;1.40;;
10440;SDS011;5268;49.346;9.522;2022-07-18T15:41:14;1.70;;;1.30;;
10440;SDS011;5268;49.346;9.522;2022-07-18T15:46:21;2.85;;;1.60;;
10440;SDS011;5268;49.346;9.522;2022-07-18T15:51:23;2.90;;;1.67;;
10440;SDS011;5268;49.346;9.522;2022-07-18T15:56:25;5.10;;;1.40;;
10440;SDS011;5268;49.346;9.522;2022-07-18T16:01:28;2.50;;;1.42;;
10440;SDS011;5268;49.346;9.522;2022-07-18T16:06:31;2.72;;;1.40;;
10440;SDS011;5268;49.346;9.522;2022-07-18T16:11:33;2.70;;;1.40;;
10440;SDS011;5268;49.346;9.522;2022-07-18T16:16:43;3.50;;;1.88;;
10440;SDS011;5268;49.346;9.522;2022-07-18T16:21:50;2.75;;;1.52;;
10440;SDS011;5268;49.346;9.522;2022-07-18T16:26:54;2.38;;;1.50;;
10440;SDS011;5268;49.346;9.522;2022-07-18T16:38:24;2.63;;;1.50;;
10440;SDS011;5268;49.346;9.522;2022-07-18T16:49:51;2.83;;;1.50;;
10440;SDS011;5268;49.346;9.522;2022-07-18T16:55:09;2.85;;;1.48;;
10440;SDS011;5268;49.346;9.522;2022-07-18T17:00:48;2.80;;;1.52;;
10440;SDS011;5268;49.346;9.522;2022-07-18T17:05:52;3.35;;;1.45;;
10440;SDS011;5268;49.346;9.522;2022-07-18T17:10:57;3.00;;;1.40;;
10440;SDS011;5268;49.346;9.522;2022-07-18T17:16:00;3.33;;;1.48;;
10440;SDS011;5268;49.346;9.522;2022-07-18T17:21:05;3.30;;;1.50;;
10440;SDS011;5268;49.346;9.522;2022-07-18T17:26:10;4.53;;;1.65;;
10440;SDS011;5268;49.346;9.522;2022-07-18T17:31:14;3.10;;;1.48;;
10440;SDS011;5268;49.346;9.522;2022-07-18T17:36:20;4.60;;;1.50;;
10440;SDS011;5268;49.346;9.522;2022-07-18T17:41:22;3.15;;;1.35;;
10440;SDS011;5268;49.346;9.522;2022-07-18T17:46:24;3.10;;;1.65;;
10440;SDS011;5268;49.346;9.522;2022-07-18T17:51:30;3.65;;;1.60;;
10440;SDS011;5268;49.346;9.522;2022-07-18T17:56:32;3.22;;;1.52;;
10440;SDS011;5268;49.346;9.522;2022-07-18T18:01:35;3.13;;;1.80;;
10440;SDS011;5268;49.346;9.522;2022-07-18T18:06:39;3.58;;;2.00;;
10440;SDS011;5268;49.346;9.522;2022-07-18T18:11:41;3.88;;;2.30;;
10440;SDS011;5268;49.346;9.522;2022-07-18T18:16:43;4.88;;;2.25;;
10440;SDS011;5268;49.346;9.522;2022-07-18T18:21:47;4.53;;;1.92;;
10440;SDS011;5268;49.346;9.522;2022-07-18T18:26:49;2.63;;;1.63;;
10440;SDS011;5268;49.346;9.522;2022-07-18T18:31:51;3.25;;;1.58;;
10440;SDS011;5268;49.346;9.522;2022-07-18T18:36:56;2.63;;;1.70;;
10440;SDS011;5268;49.346;9.522;2022-07-18T18:41:59;3.88;;;1.50;;
10440;SDS011;5268;49.346;9.522;2022-07-18T18:47:01;3.63;;;1.33;;
10440;SDS011;5268;49.346;9.522;2022-07-18T18:52:05;2.42;;;1.42;;
10440;SDS011;5268;49.346;9.522;2022-07-18T18:57:07;3.22;;;1.65;;
10440;SDS011;5268;49.346;9.522;2022-07-18T19:02:09;5.00;;;2.35;;
10440;SDS011;5268;49.346;9.522;2022-07-18T19:07:13;5.70;;;2.38;;
10440;SDS011;5268;49.346;9.522;2022-07-18T19:12:15;4.78;;;1.70;;
10440;SDS011;5268;49.346;9.522;2022-07-18T19:17:17;2.95;;;1.80;;
10440;SDS011;5268;49.346;9.522;2022-07-18T19:22:20;2.65;;;1.55;;
10440;SDS011;5268;49.346;9.522;2022-07-18T19:27:22;6.43;;;3.67;;
10440;SDS011;5268;49.346;9.522;2022-07-18T19:32:24;3.83;;;2.70;;
10440;SDS011;5268;49.346;9.522;2022-07-18T19:37:27;4.82;;;2.40;;
10440;SDS011;5268;49.346;9.522;2022-07-18T19:42:29;7.20;;;2.38;;
10440;SDS011;5268;49.346;9.522;2022-07-18T19:47:31;4.68;;;2.10;;
10440;SDS011;5268;49.346;9.522;2022-07-18T19:52:35;3.65;;;2.22;;
10440;SDS011;5268;49.346;9.522;2022-07-18T19:57:37;6.15;;;2.75;;
10440;SDS011;5268;49.346;9.522;2022-07-18T20:02:39;7.93;;;2.28;;
10440;SDS011;5268;49.346;9.522;2022-07-18T20:07:43;4.70;;;3.38;;
10440;SDS011;5268;49.346;9.522;2022-07-18T20:12:45;5.88;;;2.92;;
10440;SDS011;5268;49.346;9.522;2022-07-18T20:17:47;6.35;;;3.15;;
10440;SDS011;5268;49.346;9.522;2022-07-18T20:22:50;7.82;;;2.88;;
10440;SDS011;5268;49.346;9.522;2022-07-18T20:27:53;7.00;;;3.00;;
10440;SDS011;5268;49.346;9.522;2022-07-18T20:32:55;5.47;;;2.17;;
10440;SDS011;5268;49.346;9.522;2022-07-18T20:37:58;4.65;;;2.28;;
10440;SDS011;5268;49.346;9.522;2022-07-18T20:43:02;5.72;;;3.20;;
10440;SDS011;5268;49.346;9.522;2022-07-18T20:48:04;4.57;;;2.20;;
10440;SDS011;5268;49.346;9.522;2022-07-18T20:53:08;7.90;;;3.03;;
10440;SDS011;5268;49.346;9.522;2022-07-18T20:58:10;7.30;;;3.05;;
10440;SDS011;5268;49.346;9.522;2022-07-18T21:03:12;6.65;;;3.30;;
10440;SDS011;5268;49.346;9.522;2022-07-18T21:08:15;8.60;;;2.85;;
10440;SDS011;5268;49.346;9.522;2022-07-18T21:13:17;3.33;;;2.13;;
10440;SDS011;5268;49.346;9.522;2022-07-18T21:18:19;6.28;;;1.92;;
10440;SDS011;5268;49.346;9.522;2022-07-18T21:23:23;6.15;;;3.47;;
10440;SDS011;5268;49.346;9.522;2022-07-18T21:28:25;6.35;;;2.08;;
